createdAt,value
2022-11-24T00:01:24.496Z,5.20
2022-11-24T00:04:00.347Z,5.20
2022-11-24T00:06:29.341Z,5.20
2022-11-24T00:08:57.615Z,5.20
2022-11-24T00:11:27.540Z,5.20
2022-11-24T00:13:54.991Z,5.30
2022-11-24T00:16:24.557Z,5.30
2022-11-24T00:18:56.994Z,5.30
2022-11-24T00:21:25.971Z,5.30
2022-11-24T00:23:53.625Z,5.40
2022-11-24T00:26:29.393Z,5.40
2022-11-24T00:28:59.813Z,5.30
2022-11-24T00:31:30.877Z,5.40
2022-11-24T00:34:01.071Z,5.40
2022-11-24T00:36:30.991Z,5.40
2022-11-24T00:39:03.563Z,5.40
2022-11-24T00:41:31.766Z,5.40
2022-11-24T00:44:02.571Z,5.40
2022-11-24T00:46:30.650Z,5.30
2022-11-24T00:49:00.528Z,5.30
2022-11-24T00:51:31.710Z,5.40
2022-11-24T00:54:02.858Z,5.30
2022-11-24T00:56:32.351Z,5.30
2022-11-24T00:59:02.370Z,5.30
2022-11-24T01:01:31.278Z,5.30
2022-11-24T01:04:09.679Z,5.30
2022-11-24T01:06:37.205Z,5.30
2022-11-24T01:09:05.323Z,5.30
2022-11-24T01:11:55.714Z,5.40
2022-11-24T01:14:31.398Z,5.40
2022-11-24T01:17:01.792Z,5.40
2022-11-24T01:19:34.360Z,5.40
2022-11-24T01:22:00.880Z,5.40
2022-11-24T01:24:27.463Z,5.40
2022-11-24T01:26:54.083Z,5.40
2022-11-24T01:29:20.698Z,5.50
2022-11-24T01:31:47.293Z,5.50
2022-11-24T01:34:13.959Z,5.50
2022-11-24T01:36:40.519Z,5.50
2022-11-24T01:39:07.843Z,5.50
2022-11-24T01:41:35.555Z,5.50
2022-11-24T01:44:21.275Z,5.50
2022-11-24T01:46:50.610Z,5.50
2022-11-24T01:49:18.397Z,5.50
2022-11-24T01:52:00.993Z,5.50
2022-11-24T01:54:31.823Z,5.50
2022-11-24T01:57:16.591Z,5.50
2022-11-24T01:59:46.328Z,5.50
2022-11-24T02:02:13.769Z,5.50
2022-11-24T02:04:41.599Z,5.50
2022-11-24T02:07:08.716Z,5.50
2022-11-24T02:10:02.845Z,5.50
2022-11-24T02:12:29.363Z,5.50
2022-11-24T02:14:56.538Z,5.50
2022-11-24T02:17:23.176Z,5.50
2022-11-24T02:19:58.932Z,5.50
2022-11-24T02:22:50.861Z,5.50
2022-11-24T02:25:24.150Z,5.50
2022-11-24T02:27:54.145Z,5.50
2022-11-24T02:30:21.010Z,5.50
2022-11-24T02:32:47.900Z,5.50
2022-11-24T02:35:15.006Z,5.60
2022-11-24T02:37:41.502Z,5.50
2022-11-24T02:40:08.711Z,5.60
2022-11-24T02:42:40.854Z,5.60
2022-11-24T02:45:09.711Z,5.70
2022-11-24T02:47:36.244Z,5.70
2022-11-24T02:50:03.586Z,5.70
2022-11-24T02:52:30.096Z,5.70
2022-11-24T02:54:56.652Z,5.70
2022-11-24T02:57:23.448Z,5.70
2022-11-24T02:59:50.024Z,5.70
2022-11-24T03:02:16.849Z,5.70
2022-11-24T03:04:44.620Z,5.70
2022-11-24T03:07:11.300Z,5.70
2022-11-24T03:09:37.828Z,5.70
2022-11-24T03:12:04.494Z,5.70
2022-11-24T03:14:31.132Z,5.70
2022-11-24T03:16:57.780Z,5.70
2022-11-24T03:19:24.503Z,5.70
2022-11-24T03:21:51.065Z,5.80
2022-11-24T03:24:17.601Z,5.80
2022-11-24T03:26:44.120Z,5.80
2022-11-24T03:29:10.760Z,5.80
2022-11-24T03:31:37.417Z,5.80
2022-11-24T03:34:03.980Z,5.80
2022-11-24T03:36:30.506Z,5.90
2022-11-24T03:38:57.017Z,5.90
2022-11-24T03:41:23.578Z,5.80
2022-11-24T03:43:50.088Z,5.80
2022-11-24T03:46:16.658Z,5.80
2022-11-24T03:48:43.333Z,5.80
2022-11-24T03:51:10.259Z,5.80
2022-11-24T03:53:36.796Z,5.90
2022-11-24T03:56:04.848Z,5.90
2022-11-24T03:58:31.553Z,5.90
2022-11-24T04:00:58.107Z,5.90
2022-11-24T04:03:25.213Z,5.90
2022-11-24T04:05:51.828Z,5.90
2022-11-24T04:08:19.074Z,5.90
2022-11-24T04:10:50.582Z,5.90
2022-11-24T04:13:19.262Z,5.90
2022-11-24T04:15:46.111Z,5.90
2022-11-24T04:18:13.726Z,5.90
2022-11-24T04:20:41.409Z,5.90
2022-11-24T04:23:08.920Z,5.90
2022-11-24T04:25:35.981Z,5.90
2022-11-24T04:28:02.929Z,5.90
2022-11-24T04:30:29.770Z,5.90
2022-11-24T04:32:57.180Z,5.90
2022-11-24T04:35:23.766Z,5.90
2022-11-24T04:37:50.416Z,6.00
2022-11-24T04:40:17.525Z,6.00
2022-11-24T04:42:44.071Z,5.90
2022-11-24T04:45:11.028Z,6.00
2022-11-24T04:47:38.362Z,6.00
2022-11-24T04:50:07.535Z,6.00
2022-11-24T04:52:34.149Z,6.00
2022-11-24T04:55:01.022Z,6.00
2022-11-24T04:57:27.684Z,6.00
2022-11-24T04:59:54.851Z,6.00
2022-11-24T05:02:21.913Z,6.10
2022-11-24T05:04:48.749Z,6.10
2022-11-24T05:07:19.112Z,6.10
2022-11-24T05:10:05.073Z,6.10
2022-11-24T05:12:31.845Z,6.10
2022-11-24T05:14:59.391Z,6.10
2022-11-24T05:17:30.654Z,6.10
2022-11-24T05:19:57.700Z,6.20
2022-11-24T05:22:24.573Z,6.20
2022-11-24T05:24:51.136Z,6.20
2022-11-24T05:27:17.772Z,5.80
2022-11-24T05:29:44.546Z,6.20
2022-11-24T05:32:11.284Z,6.20
2022-11-24T05:34:37.959Z,6.20
2022-11-24T05:37:04.923Z,5.10
2022-11-24T05:39:32.922Z,6.20
2022-11-24T05:42:00.957Z,6.20
2022-11-24T05:44:27.532Z,6.20
2022-11-24T05:46:54.193Z,6.20
2022-11-24T05:49:20.750Z,6.20
2022-11-24T05:51:47.337Z,6.20
2022-11-24T05:54:14.115Z,6.20
2022-11-24T05:56:40.630Z,6.20
2022-11-24T05:59:10.032Z,6.20
2022-11-24T06:01:37.125Z,6.20
2022-11-24T06:04:03.773Z,6.20
2022-11-24T06:06:30.294Z,6.20
2022-11-24T06:08:56.831Z,6.20
2022-11-24T06:11:23.339Z,6.20
2022-11-24T06:13:49.887Z,6.20
2022-11-24T06:16:16.750Z,6.20
2022-11-24T06:18:43.350Z,6.20
2022-11-24T06:21:11.489Z,6.20
2022-11-24T06:23:39.103Z,6.20
2022-11-24T06:26:06.125Z,6.20
2022-11-24T06:28:32.700Z,6.20
2022-11-24T06:31:04.736Z,6.20
2022-11-24T06:33:33.273Z,6.30
2022-11-24T06:36:02.133Z,6.20
2022-11-24T06:38:28.897Z,6.20
2022-11-24T06:41:00.174Z,6.20
2022-11-24T06:43:30.833Z,6.20
2022-11-24T06:45:58.016Z,6.20
2022-11-24T06:48:25.515Z,6.20
2022-11-24T06:50:52.914Z,6.20
2022-11-24T06:53:19.713Z,6.20
2022-11-24T06:55:47.296Z,6.20
2022-11-24T06:58:13.947Z,6.20
2022-11-24T07:00:40.572Z,6.20
2022-11-24T07:03:07.207Z,6.30
2022-11-24T07:05:33.760Z,6.30
2022-11-24T07:08:00.496Z,6.30
2022-11-24T07:10:27.104Z,6.30
2022-11-24T07:12:53.749Z,6.30
2022-11-24T07:15:20.311Z,6.30
2022-11-24T07:17:46.907Z,6.30
2022-11-24T07:20:13.458Z,6.30
2022-11-24T07:22:40.573Z,6.20
2022-11-24T07:25:09.758Z,6.20
2022-11-24T07:27:37.210Z,6.30
2022-11-24T07:30:04.688Z,6.30
2022-11-24T07:32:31.947Z,6.30
2022-11-24T07:34:59.160Z,6.30
2022-11-24T07:37:31.307Z,6.30
2022-11-24T07:39:58.895Z,6.30
2022-11-24T07:42:25.974Z,6.30
2022-11-24T07:44:52.851Z,6.30
2022-11-24T07:47:19.609Z,6.30
2022-11-24T07:49:46.597Z,6.30
2022-11-24T07:52:13.476Z,6.30
2022-11-24T07:54:40.345Z,6.30
2022-11-24T07:57:07.533Z,6.30
2022-11-24T07:59:34.355Z,6.40
2022-11-24T08:02:01.593Z,6.40
2022-11-24T08:04:28.528Z,6.40
2022-11-24T08:06:55.310Z,6.40
2022-11-24T08:09:22.211Z,6.40
2022-11-24T08:11:49.100Z,6.40
2022-11-24T08:14:15.835Z,6.50
2022-11-24T08:16:42.741Z,6.40
2022-11-24T08:19:11.876Z,6.50
2022-11-24T08:21:38.700Z,6.50
2022-11-24T08:24:06.173Z,6.50
2022-11-24T08:26:32.912Z,6.50
2022-11-24T08:29:00.031Z,6.50
2022-11-24T08:31:33.321Z,6.50
2022-11-24T08:34:01.530Z,6.60
2022-11-24T08:36:28.476Z,6.60
2022-11-24T08:38:56.849Z,6.60
2022-11-24T08:41:24.596Z,6.60
2022-11-24T08:43:51.561Z,6.60
2022-11-24T08:46:19.013Z,6.60
2022-11-24T08:48:50.558Z,6.60
2022-11-24T08:51:20.275Z,6.70
2022-11-24T08:53:47.426Z,6.70
2022-11-24T08:56:14.464Z,6.70
2022-11-24T08:58:41.896Z,6.70
2022-11-24T09:01:14.371Z,6.80
2022-11-24T09:03:49.696Z,6.80
2022-11-24T09:06:23.388Z,6.80
2022-11-24T09:08:51.569Z,6.80
2022-11-24T09:11:19.074Z,6.80
2022-11-24T09:13:46.325Z,6.90
2022-11-24T09:16:20.482Z,6.90
2022-11-24T09:18:47.844Z,6.90
2022-11-24T09:21:17.545Z,6.90
2022-11-24T09:23:45.688Z,6.90
2022-11-24T09:26:16.612Z,7.00
2022-11-24T09:28:43.412Z,7.00
2022-11-24T09:31:12.914Z,7.00
2022-11-24T09:33:40.782Z,7.10
2022-11-24T09:36:08.251Z,7.10
2022-11-24T09:38:35.082Z,7.20
2022-11-24T09:41:43.500Z,7.20
2022-11-24T09:44:28.673Z,7.20
2022-11-24T09:47:03.467Z,7.20
2022-11-24T09:49:38.596Z,7.20
2022-11-24T09:52:13.139Z,7.20
2022-11-24T09:54:58.337Z,7.20
2022-11-24T09:57:26.715Z,7.20
2022-11-24T09:59:59.896Z,7.30
2022-11-24T10:02:27.472Z,7.30
2022-11-24T10:04:55.191Z,7.30
2022-11-24T10:07:34.202Z,7.30
2022-11-24T10:10:14.006Z,7.30
2022-11-24T10:12:59.499Z,7.30
2022-11-24T10:15:33.981Z,7.40
2022-11-24T10:18:19.386Z,7.40
2022-11-24T10:21:09.522Z,7.40
2022-11-24T10:23:59.421Z,7.40
2022-11-24T10:26:35.929Z,7.50
2022-11-24T10:29:27.740Z,7.50
2022-11-24T10:31:56.547Z,7.50
2022-11-24T10:34:37.732Z,7.50
2022-11-24T10:37:10.337Z,7.50
2022-11-24T10:40:04.083Z,7.50
2022-11-24T10:42:33.896Z,7.50
2022-11-24T10:45:09.959Z,7.50
2022-11-24T10:47:37.510Z,7.50
2022-11-24T10:50:10.307Z,7.50
2022-11-24T10:52:44.897Z,7.50
2022-11-24T10:55:12.171Z,7.50
2022-11-24T10:57:40.700Z,7.50
2022-11-24T11:00:19.643Z,7.50
2022-11-24T11:02:49.010Z,7.50
2022-11-24T11:05:44.294Z,7.60
2022-11-24T11:08:22.908Z,7.60
2022-11-24T11:11:09.925Z,7.60
2022-11-24T11:13:36.972Z,7.60
2022-11-24T11:16:22.812Z,7.60
2022-11-24T11:18:50.111Z,7.70
2022-11-24T11:21:36.614Z,7.70
2022-11-24T11:24:16.982Z,7.60
2022-11-24T11:26:44.756Z,7.70
2022-11-24T11:35:12.569Z,7.70
2022-11-24T11:37:39.588Z,7.70
2022-11-24T11:40:17.111Z,7.70
2022-11-24T11:43:02.789Z,7.70
2022-11-24T11:45:38.383Z,7.70
2022-11-24T11:48:43.159Z,7.80
2022-11-24T11:51:32.682Z,7.80
2022-11-24T11:54:14.878Z,7.80
2022-11-24T11:56:47.902Z,7.80
2022-11-24T11:59:44.724Z,7.80
2022-11-24T12:02:21.879Z,7.80
2022-11-24T12:04:48.734Z,7.90
2022-11-24T12:07:39.602Z,7.80
2022-11-24T12:10:20.032Z,7.90
2022-11-24T12:12:46.869Z,7.80
2022-11-24T12:15:16.581Z,7.80
2022-11-24T12:17:55.514Z,7.90
2022-11-24T12:20:53.785Z,7.90
2022-11-24T12:23:40.706Z,7.90
2022-11-24T12:26:25.060Z,7.80
2022-11-24T12:29:20.475Z,7.90
2022-11-24T12:31:50.305Z,7.90
2022-11-24T12:34:52.554Z,7.90
2022-11-24T12:37:51.181Z,7.90
2022-11-24T12:40:30.207Z,7.90
2022-11-24T12:43:25.763Z,7.90
2022-11-24T12:46:04.925Z,7.90
2022-11-24T12:49:15.266Z,8.00
2022-11-24T12:51:46.252Z,7.90
2022-11-24T12:54:16.638Z,7.90
2022-11-24T12:56:49.176Z,8.00
2022-11-24T12:59:33.938Z,8.00
2022-11-24T13:02:18.946Z,8.00
2022-11-24T13:05:12.612Z,8.00
2022-11-24T13:07:45.192Z,8.00
2022-11-24T13:10:46.973Z,8.00
2022-11-24T13:13:16.627Z,8.00
2022-11-24T13:16:13.081Z,8.00
2022-11-24T13:19:14.717Z,8.00
2022-11-24T13:21:41.471Z,8.00
2022-11-24T13:24:17.856Z,8.00
2022-11-24T13:26:48.240Z,8.00
2022-11-24T13:29:33.075Z,8.00
2022-11-24T13:32:02.824Z,8.00
2022-11-24T13:34:45.983Z,8.00
2022-11-24T13:37:31.351Z,8.00
2022-11-24T13:40:13.479Z,8.00
2022-11-24T13:42:58.831Z,8.00
2022-11-24T13:45:52.239Z,8.00
2022-11-24T13:48:18.811Z,8.00
2022-11-24T13:50:52.951Z,8.00
2022-11-24T13:53:35.707Z,7.90
2022-11-24T13:56:17.215Z,7.90
2022-11-24T13:58:46.019Z,7.90
2022-11-24T14:01:18.086Z,7.90
2022-11-24T14:04:30.545Z,7.90
2022-11-24T14:07:08.001Z,7.90
2022-11-24T14:09:42.733Z,7.90
2022-11-24T14:12:19.134Z,7.90
2022-11-24T14:14:48.100Z,7.90
2022-11-24T14:17:19.563Z,7.80
2022-11-24T14:19:48.953Z,7.90
2022-11-24T14:22:19.368Z,7.90
2022-11-24T14:24:52.331Z,7.90
2022-11-24T14:27:27.776Z,7.90
2022-11-24T14:29:57.023Z,7.80
2022-11-24T14:32:24.198Z,7.80
2022-11-24T14:34:52.305Z,7.80
2022-11-24T14:37:19.959Z,7.90
2022-11-24T14:39:47.039Z,7.90
2022-11-24T14:42:20.471Z,7.90
2022-11-24T14:44:59.462Z,7.90
2022-11-24T14:47:32.478Z,7.90
2022-11-24T14:50:08.383Z,7.90
2022-11-24T14:52:35.581Z,7.90
2022-11-24T14:55:21.544Z,7.90
2022-11-24T14:57:48.941Z,7.90
2022-11-24T15:00:25.454Z,7.90
2022-11-24T15:03:00.991Z,7.80
2022-11-24T15:05:58.395Z,7.70
2022-11-24T15:08:28.144Z,7.80
2022-11-24T15:11:00.799Z,7.80
2022-11-24T15:13:29.226Z,7.80
2022-11-24T15:16:02.966Z,7.80
2022-11-24T15:18:47.064Z,7.80
2022-11-24T15:21:18.831Z,7.80
2022-11-24T15:24:05.214Z,7.70
2022-11-24T15:26:35.521Z,7.70
2022-11-24T15:29:06.667Z,7.70
2022-11-24T15:31:33.266Z,7.70
2022-11-24T15:33:59.854Z,7.70
2022-11-24T15:36:26.391Z,7.70
2022-11-24T15:38:52.992Z,7.70
2022-11-24T15:41:21.816Z,7.70
2022-11-24T15:43:48.567Z,7.70
2022-11-24T15:46:15.817Z,7.70
2022-11-24T15:48:42.416Z,7.70
2022-11-24T15:51:14.424Z,7.70
2022-11-24T15:53:44.226Z,7.70
2022-11-24T15:56:32.130Z,7.70
2022-11-24T15:58:59.001Z,7.60
2022-11-24T16:01:29.940Z,7.60
2022-11-24T16:03:56.572Z,7.60
2022-11-24T16:06:24.983Z,7.60
2022-11-24T16:08:53.357Z,7.60
2022-11-24T16:11:20.419Z,7.60
2022-11-24T16:13:52.338Z,7.60
2022-11-24T16:16:20.929Z,7.60
2022-11-24T16:18:47.671Z,7.60
2022-11-24T16:21:14.193Z,7.60
2022-11-24T16:23:40.757Z,7.60
2022-11-24T16:26:07.579Z,7.60
2022-11-24T16:28:34.375Z,7.60
2022-11-24T16:31:01.266Z,7.60
2022-11-24T16:33:29.379Z,7.60
2022-11-24T16:35:55.931Z,7.60
2022-11-24T16:38:22.575Z,7.60
2022-11-24T16:40:53.811Z,7.60
2022-11-24T16:43:20.690Z,7.60
2022-11-24T16:46:09.993Z,7.60
2022-11-24T16:48:37.209Z,7.60
2022-11-24T16:51:08.414Z,7.60
2022-11-24T16:53:34.972Z,7.60
2022-11-24T16:56:01.716Z,7.60
2022-11-24T16:58:28.378Z,7.60
2022-11-24T17:00:55.123Z,7.60
2022-11-24T17:03:21.685Z,7.60
2022-11-24T17:05:58.903Z,7.60
2022-11-24T17:08:25.755Z,7.60
2022-11-24T17:10:52.743Z,7.60
2022-11-24T17:13:19.505Z,7.60
2022-11-24T17:15:51.045Z,7.60
2022-11-24T17:18:25.143Z,7.60
2022-11-24T17:20:52.166Z,7.50
2022-11-24T17:23:19.429Z,7.50
2022-11-24T17:25:46.167Z,7.50
2022-11-24T17:28:12.765Z,7.50
2022-11-24T17:30:39.261Z,7.50
2022-11-24T17:33:05.807Z,7.50
2022-11-24T17:35:34.769Z,7.50
2022-11-24T17:38:01.410Z,7.60
2022-11-24T17:40:29.433Z,7.60
2022-11-24T17:43:00.026Z,7.60
2022-11-24T17:45:27.380Z,7.60
2022-11-24T17:47:54.277Z,7.50
2022-11-24T17:50:25.342Z,7.50
2022-11-24T17:52:52.497Z,7.60
2022-11-24T17:55:19.074Z,7.60
2022-11-24T17:57:45.591Z,7.60
2022-11-24T18:00:12.763Z,7.60
2022-11-24T18:02:39.903Z,7.60
2022-11-24T18:05:06.810Z,7.60
2022-11-24T18:07:36.309Z,7.70
2022-11-24T18:10:03.189Z,7.70
2022-11-24T18:12:29.834Z,7.70
2022-11-24T18:14:56.365Z,7.70
2022-11-24T18:17:24.248Z,7.70
2022-11-24T18:19:50.892Z,7.60
2022-11-24T18:22:17.606Z,7.60
2022-11-24T18:24:45.647Z,7.60
2022-11-24T18:27:12.143Z,7.60
2022-11-24T18:29:38.708Z,7.60
2022-11-24T18:32:06.355Z,7.60
2022-11-24T18:34:33.249Z,7.60
2022-11-24T18:37:02.982Z,7.60
2022-11-24T18:39:29.763Z,7.70
2022-11-24T18:41:56.298Z,7.60
2022-11-24T18:44:22.841Z,7.60
2022-11-24T18:46:50.290Z,7.60
2022-11-24T18:49:16.831Z,7.50
2022-11-24T18:51:43.900Z,7.50
2022-11-24T18:54:10.540Z,7.50
2022-11-24T18:56:37.190Z,7.50
2022-11-24T18:59:03.709Z,7.50
2022-11-24T19:01:30.575Z,7.40
2022-11-24T19:03:59.047Z,7.50
2022-11-24T19:06:32.610Z,7.50
2022-11-24T19:09:02.676Z,7.50
2022-11-24T19:11:35.446Z,7.40
2022-11-24T19:14:04.132Z,7.40
2022-11-24T19:16:31.758Z,7.30
2022-11-24T19:19:00.386Z,7.30
2022-11-24T19:21:29.795Z,7.40
2022-11-24T19:24:01.244Z,7.40
2022-11-24T19:26:31.162Z,7.40
2022-11-24T19:28:57.658Z,7.40
2022-11-24T19:31:24.249Z,7.40
2022-11-24T19:33:53.006Z,7.40
2022-11-24T19:36:21.307Z,7.40
2022-11-24T19:38:53.253Z,7.50
2022-11-24T19:41:21.833Z,7.50
2022-11-24T19:43:48.843Z,7.50
2022-11-24T19:46:18.413Z,7.50
2022-11-24T19:48:47.300Z,7.50
2022-11-24T19:51:16.425Z,7.60
2022-11-24T19:53:43.484Z,7.60
2022-11-24T19:56:12.639Z,7.60
2022-11-24T19:58:40.712Z,7.60
2022-11-24T20:01:14.904Z,7.50
2022-11-24T20:03:43.374Z,7.60
2022-11-24T20:06:12.470Z,7.60
2022-11-24T20:08:40.234Z,7.60
2022-11-24T20:11:09.505Z,7.60
2022-11-24T20:13:37.988Z,7.60
2022-11-24T20:16:06.712Z,7.50
2022-11-24T20:18:37.534Z,7.50
2022-11-24T20:21:19.303Z,7.50
2022-11-24T20:23:52.290Z,7.40
2022-11-24T20:26:23.332Z,7.40
2022-11-24T20:28:51.930Z,7.30
2022-11-24T20:31:21.976Z,7.30
2022-11-24T20:33:49.293Z,7.30
2022-11-24T20:36:19.562Z,7.20
2022-11-24T20:38:47.690Z,7.10
2022-11-24T20:41:17.805Z,7.10
2022-11-24T20:43:45.458Z,7.10
2022-11-24T20:46:17.941Z,7.00
2022-11-24T20:48:46.339Z,7.00
2022-11-24T20:51:20.525Z,6.90
2022-11-24T20:53:48.402Z,6.90
2022-11-24T20:56:18.115Z,6.90
2022-11-24T20:58:45.403Z,6.80
2022-11-24T21:01:21.397Z,6.80
2022-11-24T21:03:53.185Z,6.80
2022-11-24T21:06:20.018Z,6.80
2022-11-24T21:08:46.761Z,6.80
2022-11-24T21:11:15.106Z,6.70
2022-11-24T21:13:44.348Z,6.70
2022-11-24T21:16:40.554Z,6.70
2022-11-24T21:19:12.568Z,6.70
2022-11-24T21:21:40.932Z,6.60
2022-11-24T21:24:11.741Z,6.60
2022-11-24T21:26:39.835Z,6.60
2022-11-24T21:29:07.659Z,6.60
2022-11-24T21:31:39.919Z,6.50
2022-11-24T21:34:08.141Z,6.50
2022-11-24T21:36:35.562Z,6.40
2022-11-24T21:39:04.194Z,6.40
2022-11-24T21:41:33.522Z,6.30
2022-11-24T21:44:00.923Z,6.30
2022-11-24T21:46:29.670Z,6.30
2022-11-24T21:48:56.317Z,6.20
2022-11-24T21:51:23.781Z,6.20
2022-11-24T21:53:50.405Z,6.20
2022-11-24T21:56:19.242Z,6.20
2022-11-24T21:58:51.535Z,6.20
2022-11-24T22:01:20.175Z,6.10
2022-11-24T22:03:47.440Z,6.10
2022-11-24T22:06:16.666Z,6.00
2022-11-24T22:08:43.605Z,6.10
2022-11-24T22:11:14.238Z,6.10
2022-11-24T22:13:42.403Z,6.00
2022-11-24T22:16:12.146Z,6.00
2022-11-24T22:18:43.031Z,6.00
2022-11-24T22:21:17.695Z,5.90
2022-11-24T22:23:45.040Z,5.90
2022-11-24T22:26:15.464Z,6.00
2022-11-24T22:28:43.837Z,6.00
2022-11-24T22:31:12.916Z,6.00
2022-11-24T22:33:40.333Z,6.10
2022-11-24T22:36:08.413Z,6.10
2022-11-24T22:38:35.315Z,6.10
2022-11-24T22:41:08.304Z,6.20
2022-11-24T22:43:36.989Z,6.20
2022-11-24T22:46:08.287Z,6.20
2022-11-24T22:48:35.912Z,6.30
2022-11-24T22:51:09.089Z,6.30
2022-11-24T22:53:36.402Z,6.30
2022-11-24T22:56:09.637Z,6.30
2022-11-24T22:58:37.608Z,6.30
2022-11-24T23:01:12.903Z,6.40
2022-11-24T23:03:40.824Z,6.40
2022-11-24T23:06:12.684Z,6.30
2022-11-24T23:08:40.014Z,6.30
2022-11-24T23:11:10.151Z,6.30
2022-11-24T23:13:37.289Z,6.30
2022-11-24T23:16:12.881Z,6.20
2022-11-24T23:18:40.572Z,6.20
2022-11-24T23:21:10.631Z,6.20
2022-11-24T23:23:37.972Z,6.10
2022-11-24T23:26:09.944Z,6.10
2022-11-24T23:28:37.159Z,6.10
2022-11-24T23:31:08.549Z,6.10
2022-11-24T23:33:36.112Z,6.00
2022-11-24T23:36:06.286Z,6.00
2022-11-24T23:38:33.383Z,6.00
2022-11-24T23:41:04.129Z,5.90
2022-11-24T23:43:35.256Z,5.80
2022-11-24T23:46:06.766Z,5.80
2022-11-24T23:48:34.180Z,5.80
2022-11-24T23:51:08.281Z,5.70
2022-11-24T23:53:36.661Z,5.70
2022-11-24T23:56:04.130Z,5.70
2022-11-24T23:58:31.706Z,5.60
